Time;durP1;ratioP1;P1;durP2;ratioP2;P2;SDS_P1;SDS_P2;PMS_P1;PMS_P2;Temp;Humidity;BMP_temperature;BMP_pressure;BME280_temperature;BME280_humidity;BME280_pressure;Samples;Min_cycle;Max_cycle;Signal;HPM_P1;HPM_P2
2022/01/05 00:02:24;;;;;;;7.65;1.75;;;2.40;99.90;;;;;;5080218;28;20119;-75
2022/01/05 00:04:50;;;;;;;7.32;1.40;;;2.40;99.90;;;;;;5082611;28;20101;-75
2022/01/05 00:07:16;;;;;;;5.82;0.73;;;2.40;99.90;;;;;;5078953;28;20437;-76
2022/01/05 00:09:43;;;;;;;10.75;1.00;;;2.40;99.90;;;;;;5082639;28;20044;-76
2022/01/05 00:12:10;;;;;;;8.95;0.80;;;2.40;99.90;;;;;;5081469;28;20037;-75
2022/01/05 00:14:36;;;;;;;11.77;1.92;;;2.40;99.90;;;;;;5088943;28;20032;-76
2022/01/05 00:17:01;;;;;;;10.55;1.20;;;2.50;99.90;;;;;;5086811;28;20040;-75
2022/01/05 00:19:28;;;;;;;11.40;1.70;;;2.60;99.90;;;;;;5112796;27;20083;-75
2022/01/05 00:21:54;;;;;;;9.63;2.00;;;2.60;99.90;;;;;;5088593;28;20390;-75
2022/01/05 00:24:19;;;;;;;8.82;1.13;;;2.70;99.90;;;;;;5083768;28;20105;-76
2022/01/05 00:26:45;;;;;;;11.50;1.00;;;2.70;99.90;;;;;;5087344;28;20101;-76
2022/01/05 00:29:11;;;;;;;11.25;1.30;;;2.70;99.90;;;;;;5083196;28;20089;-75
2022/01/05 00:31:37;;;;;;;10.27;1.10;;;2.70;99.90;;;;;;5115983;27;20049;-75
2022/01/05 00:34:03;;;;;;;7.60;2.05;;;2.80;99.90;;;;;;5118204;27;20059;-75
2022/01/05 00:36:28;;;;;;;11.45;1.02;;;2.70;99.90;;;;;;5081943;28;20036;-75
2022/01/05 00:38:55;;;;;;;12.00;1.40;;;2.70;99.90;;;;;;5083371;28;20047;-75
2022/01/05 00:41:21;;;;;;;6.32;1.00;;;2.70;99.90;;;;;;5084081;28;20039;-75
2022/01/05 00:43:46;;;;;;;8.15;0.95;;;2.70;99.90;;;;;;5084862;28;20047;-76
2022/01/05 00:46:12;;;;;;;9.18;1.02;;;2.70;99.90;;;;;;5086328;28;20074;-76
2022/01/05 00:48:38;;;;;;;10.32;1.05;;;2.70;99.90;;;;;;5081475;28;20499;-76
2022/01/05 00:51:06;;;;;;;10.40;0.85;;;2.70;99.90;;;;;;5083983;28;20471;-76
2022/01/05 00:53:33;;;;;;;7.32;0.90;;;2.60;99.90;;;;;;5120818;27;20054;-75
2022/01/05 00:55:58;;;;;;;8.85;0.90;;;2.60;99.90;;;;;;5080467;28;20044;-76
2022/01/05 00:58:24;;;;;;;13.75;0.90;;;2.60;99.90;;;;;;5116422;27;20097;-75
2022/01/05 01:00:50;;;;;;;8.70;1.13;;;2.60;99.90;;;;;;5086466;28;20059;-76
2022/01/05 01:03:15;;;;;;;10.25;1.30;;;2.60;99.90;;;;;;5085957;28;20472;-75
2022/01/05 01:05:41;;;;;;;6.25;1.08;;;2.50;99.90;;;;;;5087113;28;20032;-76
2022/01/05 01:08:07;;;;;;;5.75;0.80;;;2.50;99.90;;;;;;5114511;27;20131;-76
2022/01/05 01:10:32;;;;;;;5.95;0.90;;;2.40;99.90;;;;;;5081121;28;20028;-75
2022/01/05 01:12:58;;;;;;;9.68;1.38;;;2.40;99.90;;;;;;5081853;28;20086;-75
2022/01/05 01:15:23;;;;;;;9.05;1.00;;;2.40;99.90;;;;;;5066078;28;20040;-75
2022/01/05 01:17:49;;;;;;;5.68;0.80;;;2.40;99.90;;;;;;5088000;28;20062;-75
2022/01/05 01:20:16;;;;;;;9.93;1.48;;;2.40;99.90;;;;;;5086223;28;20035;-75
2022/01/05 01:22:42;;;;;;;8.00;0.88;;;2.40;99.90;;;;;;5086838;28;20084;-76
2022/01/05 01:25:08;;;;;;;9.38;0.75;;;2.40;99.90;;;;;;5079758;28;20449;-75
2022/01/05 01:27:35;;;;;;;9.90;1.42;;;2.30;99.90;;;;;;5082778;28;20457;-75
2022/01/05 01:30:01;;;;;;;11.05;0.98;;;2.30;99.90;;;;;;5089857;28;20050;-75
2022/01/05 01:32:27;;;;;;;7.68;1.10;;;2.30;99.90;;;;;;5113379;27;20137;-75
2022/01/05 01:34:52;;;;;;;6.68;1.00;;;2.30;99.90;;;;;;5083779;28;20040;-75
2022/01/05 01:37:18;;;;;;;10.98;1.38;;;2.30;99.90;;;;;;5083542;28;20051;-76
2022/01/05 01:39:43;;;;;;;6.95;1.10;;;2.30;99.90;;;;;;5080497;28;20037;-76
2022/01/05 01:42:09;;;;;;;11.38;2.17;;;2.30;99.90;;;;;;5081470;28;20040;-75
2022/01/05 01:44:35;;;;;;;8.63;1.27;;;2.40;99.90;;;;;;5082494;28;20044;-76
2022/01/05 01:47:00;;;;;;;13.15;1.17;;;2.60;99.90;;;;;;5084340;28;20051;-75
2022/01/05 01:49:26;;;;;;;11.38;1.38;;;2.40;99.90;;;;;;5078785;28;20062;-75
2022/01/05 01:51:51;;;;;;;12.00;1.20;;;2.40;99.90;;;;;;5084725;28;20035;-75
2022/01/05 01:54:17;;;;;;;11.75;1.33;;;2.50;99.90;;;;;;5085446;28;20036;-75
2022/01/05 01:56:45;;;;;;;12.32;1.02;;;2.50;99.90;;;;;;5087197;28;20063;-75
2022/01/05 01:59:12;;;;;;;9.38;1.13;;;2.50;99.90;;;;;;5076110;28;20041;-76
2022/01/05 02:01:39;;;;;;;10.30;1.15;;;2.40;99.90;;;;;;5079762;28;20067;-75
2022/01/05 02:04:05;;;;;;;10.45;1.88;;;2.50;99.90;;;;;;5081053;28;20040;-75
2022/01/05 02:06:31;;;;;;;11.75;1.40;;;2.50;99.90;;;;;;5078848;28;20042;-75
2022/01/05 02:08:58;;;;;;;15.48;1.98;;;2.50;99.90;;;;;;5082167;28;20429;-75
2022/01/05 02:11:25;;;;;;;12.43;1.52;;;2.50;99.90;;;;;;5078884;28;20051;-75
2022/01/05 02:13:51;;;;;;;11.07;1.40;;;2.40;99.90;;;;;;5081377;28;20090;-75
2022/01/05 02:16:22;;;;;;;10.13;1.08;;;2.40;99.90;;;;;;5080201;28;20043;-75
2022/01/05 02:19:00;;;;;;;9.82;1.10;;;2.40;99.90;;;;;;5084862;28;20029;-75
2022/01/05 02:21:31;;;;;;;11.10;1.63;;;2.40;99.90;;;;;;5080634;28;20388;-75
2022/01/05 02:23:57;;;;;;;12.05;1.40;;;2.30;99.90;;;;;;5081746;28;20036;-75
2022/01/05 02:26:23;;;;;;;10.07;1.20;;;2.40;99.90;;;;;;5083379;28;20044;-75
2022/01/05 02:28:49;;;;;;;12.60;2.88;;;2.30;99.90;;;;;;5079173;28;20509;-76
2022/01/05 02:31:15;;;;;;;14.52;1.38;;;2.30;99.90;;;;;;5109201;27;20036;-75
2022/01/05 02:33:40;;;;;;;11.07;2.80;;;2.30;99.90;;;;;;5082376;28;20024;-76
2022/01/05 02:36:08;;;;;;;15.02;1.58;;;2.30;99.90;;;;;;5082153;28;20600;-75
2022/01/05 02:38:34;;;;;;;18.65;3.03;;;2.40;99.90;;;;;;5110124;27;20032;-76
2022/01/05 02:41:06;;;;;;;17.23;1.88;;;2.30;99.90;;;;;;5079794;28;20720;-75
2022/01/05 02:43:32;;;;;;;12.63;1.13;;;2.40;99.90;;;;;;5079059;28;20071;-75
2022/01/05 02:45:58;;;;;;;12.88;1.42;;;2.40;99.90;;;;;;5081719;28;20133;-76
2022/01/05 02:48:23;;;;;;;16.30;1.60;;;2.40;99.90;;;;;;5084321;28;20070;-76
2022/01/05 02:50:49;;;;;;;12.45;2.72;;;2.40;99.90;;;;;;5081791;28;20048;-76
2022/01/05 02:53:14;;;;;;;8.25;1.33;;;2.40;99.90;;;;;;5078531;28;20047;-75
2022/01/05 02:55:40;;;;;;;14.35;1.50;;;2.40;99.90;;;;;;5081438;28;20074;-76
2022/01/05 02:58:05;;;;;;;13.27;1.55;;;2.40;99.90;;;;;;5076479;28;20048;-75
2022/01/05 03:00:33;;;;;;;14.40;2.83;;;2.50;99.90;;;;;;5080925;28;20048;-75
2022/01/05 03:02:58;;;;;;;12.70;2.25;;;2.60;99.90;;;;;;5115820;27;20048;-75
2022/01/05 03:05:24;;;;;;;12.45;2.08;;;2.50;99.90;;;;;;5112438;27;20043;-75
2022/01/05 03:07:49;;;;;;;13.32;1.33;;;2.50;99.90;;;;;;5114763;27;20368;-75
2022/01/05 03:10:15;;;;;;;18.45;2.65;;;2.50;99.90;;;;;;5080048;28;20048;-75
2022/01/05 03:12:42;;;;;;;16.17;2.13;;;2.60;99.90;;;;;;5078548;28;20102;-75
2022/01/05 03:15:09;;;;;;;14.25;2.15;;;2.60;99.90;;;;;;5079166;28;20562;-75
2022/01/05 03:17:34;;;;;;;12.68;2.08;;;2.60;99.90;;;;;;5079179;28;20036;-75
2022/01/05 03:20:00;;;;;;;13.32;2.55;;;2.60;99.90;;;;;;5078848;28;20498;-75
2022/01/05 03:22:25;;;;;;;8.38;1.67;;;2.60;99.90;;;;;;5061397;28;20482;-75
2022/01/05 03:24:51;;;;;;;16.67;2.42;;;2.80;99.90;;;;;;5076161;28;20394;-75
2022/01/05 03:27:17;;;;;;;13.77;2.67;;;2.80;99.90;;;;;;5076263;28;20048;-75
2022/01/05 03:29:42;;;;;;;12.45;1.65;;;2.80;99.90;;;;;;5081186;28;20072;-75
2022/01/05 03:32:08;;;;;;;20.90;2.33;;;2.90;99.90;;;;;;5084829;28;20052;-75
2022/01/05 03:34:36;;;;;;;15.23;1.77;;;2.90;99.90;;;;;;5074852;28;20078;-75
2022/01/05 03:37:02;;;;;;;17.38;2.10;;;3.00;99.90;;;;;;5072477;28;20394;-75
2022/01/05 03:39:27;;;;;;;12.00;1.83;;;3.00;99.90;;;;;;5072341;28;20028;-75
2022/01/05 03:41:53;;;;;;;14.77;2.28;;;2.90;99.90;;;;;;5105776;27;20068;-75
2022/01/05 03:44:18;;;;;;;18.25;1.92;;;3.00;99.90;;;;;;5072428;28;20075;-75
2022/01/05 03:46:44;;;;;;;17.25;2.17;;;3.00;99.90;;;;;;5072640;28;20036;-75
2022/01/05 03:49:10;;;;;;;20.92;2.20;;;3.00;99.90;;;;;;5075714;28;20529;-75
2022/01/05 03:51:36;;;;;;;12.70;1.48;;;3.10;99.90;;;;;;5077428;28;20032;-75
2022/01/05 03:54:01;;;;;;;12.57;1.98;;;3.10;99.90;;;;;;5075936;28;20046;-75
2022/01/05 03:56:27;;;;;;;19.42;2.88;;;3.10;99.90;;;;;;5081030;28;20114;-75
2022/01/05 03:58:52;;;;;;;20.35;1.67;;;3.10;99.90;;;;;;5106657;27;20024;-75
2022/01/05 04:01:18;;;;;;;13.07;1.80;;;3.10;99.90;;;;;;5111313;27;20048;-75
2022/01/05 04:03:44;;;;;;;18.98;2.03;;;3.10;99.90;;;;;;5107684;27;20482;-75
2022/01/05 04:06:10;;;;;;;11.43;2.05;;;3.20;99.90;;;;;;5076299;28;20075;-75
2022/01/05 04:08:35;;;;;;;12.57;1.70;;;3.20;99.90;;;;;;5091504;27;20093;-75
2022/01/05 04:11:01;;;;;;;16.27;2.25;;;3.20;99.90;;;;;;5079428;28;20044;-75
2022/01/05 04:13:26;;;;;;;16.75;1.83;;;3.10;99.90;;;;;;5077025;28;20062;-75
2022/01/05 04:15:52;;;;;;;14.07;1.63;;;3.10;99.90;;;;;;5107735;27;20042;-75
2022/01/05 04:18:17;;;;;;;12.48;1.73;;;3.00;99.90;;;;;;5078917;28;20050;-75
2022/01/05 04:20:43;;;;;;;16.90;2.22;;;3.10;99.90;;;;;;5075472;28;20032;-75
2022/01/05 04:23:09;;;;;;;22.02;4.65;;;3.10;99.90;;;;;;5076870;28;20044;-75
2022/01/05 04:25:35;;;;;;;16.17;2.70;;;3.20;99.90;;;;;;5077157;28;20055;-75
2022/01/05 04:28:02;;;;;;;14.35;2.05;;;3.20;99.90;;;;;;5075332;28;20038;-75
2022/01/05 04:30:28;;;;;;;15.23;2.13;;;3.30;99.90;;;;;;5076020;28;20154;-75
2022/01/05 04:32:54;;;;;;;10.65;1.88;;;3.40;99.90;;;;;;5077081;28;20534;-75
2022/01/05 04:35:20;;;;;;;16.05;1.55;;;3.40;99.90;;;;;;5080295;28;20040;-75
2022/01/05 04:37:45;;;;;;;14.93;1.58;;;3.50;99.90;;;;;;5074246;28;20040;-75
2022/01/05 04:40:11;;;;;;;17.60;2.78;;;3.50;99.90;;;;;;5076342;28;20040;-75
2022/01/05 04:42:38;;;;;;;12.25;1.73;;;3.40;99.90;;;;;;5077996;28;20110;-75
2022/01/05 04:45:04;;;;;;;17.20;2.28;;;3.50;99.90;;;;;;5108324;27;20055;-75
2022/01/05 04:47:30;;;;;;;11.27;1.30;;;3.50;99.90;;;;;;5078303;28;20063;-75
2022/01/05 04:49:56;;;;;;;8.35;1.02;;;3.50;99.90;;;;;;5076711;28;20418;-75
2022/01/05 04:52:22;;;;;;;17.45;1.60;;;3.50;99.90;;;;;;5074085;28;20043;-75
2022/01/05 04:54:47;;;;;;;12.45;1.77;;;3.40;99.90;;;;;;5074197;28;20041;-75
2022/01/05 04:57:16;;;;;;;10.95;1.42;;;3.40;99.90;;;;;;5074838;28;20061;-74
2022/01/05 04:59:42;;;;;;;12.30;2.00;;;3.50;99.90;;;;;;5070764;28;20047;-73
2022/01/05 05:02:08;;;;;;;16.05;1.73;;;3.50;99.90;;;;;;5075495;28;20117;-73
2022/01/05 05:04:34;;;;;;;14.05;1.88;;;3.50;99.90;;;;;;5077706;28;20044;-72
2022/01/05 05:06:59;;;;;;;10.95;1.50;;;3.60;99.90;;;;;;5074542;28;20040;-73
2022/01/05 05:09:25;;;;;;;11.40;1.30;;;3.60;99.90;;;;;;5075506;28;20093;-73
2022/01/05 05:11:51;;;;;;;12.27;1.40;;;3.60;99.90;;;;;;5076996;28;20036;-73
2022/01/05 05:14:17;;;;;;;14.07;2.30;;;3.60;99.90;;;;;;5075582;28;20085;-73
2022/01/05 05:16:43;;;;;;;13.55;1.83;;;3.60;99.90;;;;;;5072223;28;20044;-73
2022/01/05 05:19:09;;;;;;;11.50;1.70;;;3.50;99.90;;;;;;5075929;28;20039;-73
2022/01/05 05:21:35;;;;;;;11.52;1.67;;;3.60;99.90;;;;;;5109304;27;20040;-73
2022/01/05 05:24:01;;;;;;;15.05;2.08;;;3.60;99.90;;;;;;5075362;28;20490;-73
2022/01/05 05:26:26;;;;;;;14.40;2.15;;;3.60;99.90;;;;;;5076488;28;20032;-73
2022/01/05 05:28:52;;;;;;;15.32;1.70;;;3.60;99.90;;;;;;5088692;27;20048;-72
2022/01/05 05:31:18;;;;;;;22.52;2.13;;;3.70;99.90;;;;;;5074916;28;20097;-73
2022/01/05 05:33:44;;;;;;;13.15;1.45;;;3.80;99.90;;;;;;5059611;28;20143;-72
2022/01/05 05:36:09;;;;;;;16.45;2.00;;;3.90;99.90;;;;;;5075434;28;20608;-73
2022/01/05 05:38:35;;;;;;;15.10;2.00;;;3.90;99.90;;;;;;5074036;28;20518;-72
2022/01/05 05:41:01;;;;;;;10.95;2.00;;;3.90;99.90;;;;;;5080467;28;20501;-72
2022/01/05 05:43:26;;;;;;;11.88;2.00;;;3.90;99.90;;;;;;5082709;28;20040;-72
2022/01/05 05:45:52;;;;;;;12.70;1.98;;;4.00;99.90;;;;;;5081627;28;20139;-73
2022/01/05 05:48:17;;;;;;;17.60;2.67;;;4.00;99.90;;;;;;5084711;28;20044;-72
2022/01/05 05:50:43;;;;;;;18.90;2.60;;;4.00;99.90;;;;;;5081850;28;20036;-73
2022/01/05 05:53:09;;;;;;;10.57;1.45;;;4.00;99.90;;;;;;5081233;28;20041;-73
2022/01/05 05:55:34;;;;;;;16.08;1.48;;;4.10;99.90;;;;;;5081444;28;20028;-73
2022/01/05 05:58:01;;;;;;;18.33;2.35;;;4.10;99.90;;;;;;5077073;28;20547;-73
2022/01/05 06:00:29;;;;;;;10.25;1.40;;;4.00;99.90;;;;;;5074308;28;21767;-72
2022/01/05 06:02:59;;;;;;;12.60;1.83;;;4.10;99.90;;;;;;5109918;27;20147;-73
2022/01/05 06:05:25;;;;;;;14.02;2.13;;;4.10;99.90;;;;;;5071937;28;20720;-72
2022/01/05 06:07:50;;;;;;;13.48;2.60;;;4.10;99.90;;;;;;5077933;28;20098;-72
2022/01/05 06:10:16;;;;;;;13.88;2.03;;;4.20;99.90;;;;;;5073292;28;20708;-72
2022/01/05 06:12:42;;;;;;;14.32;1.70;;;4.20;99.90;;;;;;5077150;28;20033;-73
2022/01/05 06:15:08;;;;;;;18.00;2.30;;;4.20;99.90;;;;;;5074688;28;20055;-72
2022/01/05 06:17:34;;;;;;;17.60;2.78;;;4.20;99.90;;;;;;5076832;28;21414;-73
2022/01/05 06:20:00;;;;;;;11.90;1.50;;;4.20;99.90;;;;;;5077503;28;20043;-73
2022/01/05 06:22:26;;;;;;;13.13;1.48;;;4.10;99.90;;;;;;5081074;28;20047;-73
2022/01/05 06:24:52;;;;;;;12.25;1.85;;;4.20;99.90;;;;;;5079208;28;20113;-73
2022/01/05 06:27:17;;;;;;;13.07;1.83;;;4.10;99.90;;;;;;5082143;28;21513;-73
2022/01/05 06:29:43;;;;;;;16.75;2.35;;;4.50;99.90;;;;;;5113084;27;20040;-73
2022/01/05 06:32:09;;;;;;;17.98;3.55;;;4.10;99.90;;;;;;5077376;28;20040;-73
2022/01/05 06:34:35;;;;;;;10.93;2.20;;;4.10;99.90;;;;;;5079969;28;20064;-73
2022/01/05 06:37:01;;;;;;;11.20;1.60;;;4.20;99.90;;;;;;5079535;28;20041;-73
2022/01/05 06:39:26;;;;;;;10.93;1.80;;;4.20;99.90;;;;;;5080622;28;20047;-73
2022/01/05 06:41:52;;;;;;;14.82;2.55;;;4.20;99.90;;;;;;5081550;28;20147;-72
2022/01/05 06:44:18;;;;;;;16.10;1.88;;;4.20;99.90;;;;;;5078192;28;20040;-72
2022/01/05 06:46:43;;;;;;;15.30;1.52;;;4.30;99.90;;;;;;5077831;28;20055;-73
2022/01/05 06:49:09;;;;;;;9.32;1.35;;;4.20;99.90;;;;;;5078915;28;20040;-73
2022/01/05 06:51:34;;;;;;;14.07;2.58;;;4.30;99.90;;;;;;5086022;28;20039;-72
2022/01/05 06:54:00;;;;;;;11.95;1.95;;;4.30;99.90;;;;;;5081994;28;20044;-72
2022/01/05 06:56:26;;;;;;;12.32;2.10;;;4.20;99.90;;;;;;5088029;28;20065;-72
2022/01/05 06:58:51;;;;;;;12.40;2.08;;;4.30;99.90;;;;;;5083371;28;20039;-73
2022/01/05 07:01:17;;;;;;;12.55;1.17;;;4.30;99.90;;;;;;5080306;28;20027;-73
2022/01/05 07:03:43;;;;;;;9.27;1.05;;;4.30;99.90;;;;;;5076530;28;20067;-73
2022/01/05 07:06:08;;;;;;;11.13;1.27;;;4.30;99.90;;;;;;5081183;28;20468;-73
2022/01/05 07:08:34;;;;;;;6.43;0.75;;;4.20;99.90;;;;;;5109845;27;20068;-73
2022/01/05 07:11:00;;;;;;;6.82;0.85;;;4.20;99.90;;;;;;5112156;27;20051;-73
2022/01/05 07:13:25;;;;;;;10.68;1.90;;;4.20;99.90;;;;;;5079859;28;20048;-73
2022/01/05 07:15:51;;;;;;;7.38;0.68;;;4.20;99.90;;;;;;5082373;28;20036;-73
2022/01/05 07:18:17;;;;;;;6.60;0.90;;;4.20;99.90;;;;;;5079981;28;20043;-73
2022/01/05 07:20:42;;;;;;;9.00;0.93;;;4.20;99.90;;;;;;5081546;28;20058;-72
2022/01/05 07:23:11;;;;;;;6.75;0.65;;;4.20;99.90;;;;;;5079194;28;20048;-72
2022/01/05 07:25:37;;;;;;;8.52;1.30;;;4.20;99.90;;;;;;5080632;28;20098;-72
2022/01/05 07:28:03;;;;;;;4.25;0.47;;;4.20;99.90;;;;;;5096740;28;20044;-73
2022/01/05 07:30:28;;;;;;;5.88;1.10;;;4.20;99.90;;;;;;5081900;28;20413;-73
2022/01/05 07:32:54;;;;;;;6.10;1.25;;;4.20;99.90;;;;;;5078614;28;20044;-74
2022/01/05 07:35:20;;;;;;;9.70;1.33;;;4.10;99.90;;;;;;5081450;28;20046;-75
2022/01/05 07:37:45;;;;;;;6.50;0.90;;;4.20;99.90;;;;;;5064713;28;20077;-75
2022/01/05 07:40:12;;;;;;;12.50;1.30;;;4.20;99.90;;;;;;5067955;28;20671;-75
2022/01/05 07:42:38;;;;;;;6.60;0.90;;;4.10;99.90;;;;;;5065485;28;20039;-75
2022/01/05 07:45:06;;;;;;;6.30;0.70;;;4.20;99.90;;;;;;5064015;28;20063;-75
2022/01/05 07:47:32;;;;;;;10.07;1.20;;;4.20;99.90;;;;;;5065472;28;20427;-75
2022/01/05 07:49:58;;;;;;;11.45;1.40;;;4.30;99.90;;;;;;5067194;28;20143;-74
2022/01/05 07:52:24;;;;;;;7.90;1.20;;;4.40;99.90;;;;;;5064024;28;20083;-75
2022/01/05 07:54:52;;;;;;;10.13;0.98;;;4.30;99.90;;;;;;5065423;28;20028;-74
2022/01/05 07:57:18;;;;;;;17.90;1.63;;;4.40;99.90;;;;;;5064984;28;20715;-75
2022/01/05 07:59:44;;;;;;;14.50;1.30;;;4.50;99.90;;;;;;5053508;28;20044;-75
2022/01/05 08:02:10;;;;;;;10.93;1.40;;;4.50;99.90;;;;;;5065328;28;20382;-74
2022/01/05 08:04:36;;;;;;;7.88;1.00;;;4.50;99.90;;;;;;5065853;28;20047;-75
2022/01/05 08:07:02;;;;;;;8.57;1.05;;;4.60;99.90;;;;;;5064890;28;20055;-75
2022/01/05 08:09:29;;;;;;;15.48;1.60;;;4.70;99.90;;;;;;5066090;28;20095;-76
2022/01/05 08:11:58;;;;;;;13.90;1.75;;;4.70;99.90;;;;;;5062955;28;20093;-74
2022/01/05 08:14:24;;;;;;;16.42;2.63;;;4.70;99.90;;;;;;5070259;28;20040;-75
2022/01/05 08:16:50;;;;;;;16.95;2.17;;;5.10;99.90;;;;;;5069464;28;20044;-75
2022/01/05 08:19:17;;;;;;;12.30;1.60;;;4.90;99.90;;;;;;5097284;27;20086;-75
2022/01/05 08:21:43;;;;;;;15.88;1.45;;;4.90;99.90;;;;;;5067071;28;20457;-75
2022/01/05 08:24:11;;;;;;;10.80;1.30;;;4.90;99.90;;;;;;5072430;28;20058;-75
2022/01/05 08:26:37;;;;;;;15.70;1.40;;;4.90;99.90;;;;;;5077379;28;20044;-76
2022/01/05 08:29:03;;;;;;;13.20;1.73;;;5.00;99.90;;;;;;5107821;27;20113;-75
2022/01/05 08:31:28;;;;;;;13.73;1.75;;;5.00;99.90;;;;;;5075682;28;20076;-75
2022/01/05 08:33:56;;;;;;;15.48;1.73;;;5.00;99.90;;;;;;5079899;28;20402;-75
2022/01/05 08:36:23;;;;;;;12.95;1.63;;;5.00;99.90;;;;;;5080634;28;20040;-75
2022/01/05 08:38:49;;;;;;;10.55;1.17;;;5.20;99.90;;;;;;5083273;28;20159;-75
2022/01/05 08:41:15;;;;;;;17.27;1.95;;;5.00;99.90;;;;;;5076303;28;20111;-75
2022/01/05 08:43:40;;;;;;;13.43;1.20;;;5.10;99.90;;;;;;5082854;28;20106;-75
2022/01/05 08:46:07;;;;;;;19.30;1.63;;;5.10;99.90;;;;;;5083371;28;20090;-75
2022/01/05 08:48:33;;;;;;;12.85;1.23;;;5.10;99.90;;;;;;5079058;28;20503;-75
2022/01/05 08:50:59;;;;;;;16.98;1.88;;;5.20;99.90;;;;;;5080623;28;20039;-75
2022/01/05 08:53:25;;;;;;;7.78;1.10;;;5.20;99.90;;;;;;5078081;28;20047;-75
2022/01/05 08:55:51;;;;;;;12.43;1.45;;;5.20;99.90;;;;;;5081097;28;20031;-75
2022/01/05 08:58:18;;;;;;;10.07;1.20;;;5.30;99.90;;;;;;5079153;28;20411;-75
2022/01/05 09:00:44;;;;;;;14.20;1.42;;;5.30;99.90;;;;;;5079350;28;20025;-75
2022/01/05 09:03:13;;;;;;;7.88;1.02;;;5.30;99.90;;;;;;5079658;28;20402;-75
2022/01/05 09:05:39;;;;;;;8.65;1.38;;;5.30;99.90;;;;;;5084946;28;20127;-76
2022/01/05 09:08:05;;;;;;;15.63;1.20;;;5.40;99.90;;;;;;5080654;28;20070;-75
2022/01/05 09:10:32;;;;;;;6.45;1.08;;;5.40;99.90;;;;;;5082165;28;20036;-76
2022/01/05 09:12:59;;;;;;;8.55;1.33;;;5.40;99.90;;;;;;5078329;28;20376;-75
2022/01/05 09:15:26;;;;;;;6.53;0.63;;;5.50;99.90;;;;;;5081196;28;20081;-76
2022/01/05 09:17:52;;;;;;;9.23;1.02;;;5.60;99.90;;;;;;5078190;28;20536;-75
2022/01/05 09:20:19;;;;;;;8.85;1.00;;;5.60;99.90;;;;;;5080517;28;20067;-76
2022/01/05 09:22:44;;;;;;;13.15;1.55;;;5.60;99.90;;;;;;5080749;28;20089;-76
2022/01/05 09:25:12;;;;;;;14.40;1.15;;;5.70;99.90;;;;;;5081242;28;20039;-76
2022/01/05 09:27:38;;;;;;;14.80;1.90;;;5.70;99.90;;;;;;5112638;27;20075;-76
2022/01/05 09:30:07;;;;;;;14.30;1.13;;;5.70;99.90;;;;;;5082354;28;20132;-76
2022/01/05 09:32:33;;;;;;;19.85;2.40;;;5.70;99.90;;;;;;5079737;28;20509;-76
2022/01/05 09:34:59;;;;;;;21.08;2.83;;;5.70;99.90;;;;;;5083718;28;20464;-76
2022/01/05 09:37:28;;;;;;;15.27;2.03;;;5.70;99.90;;;;;;5081355;28;20036;-75
2022/01/05 09:42:40;;;;;;;15.40;2.60;;;5.70;99.90;;;;;;5080763;28;20052;-75
2022/01/05 09:45:21;;;;;;;22.08;3.38;;;5.70;99.90;;;;;;5081331;28;20074;-76
2022/01/05 09:48:20;;;;;;;20.33;2.60;;;5.80;99.90;;;;;;5097443;27;20074;-76
2022/01/05 09:50:56;;;;;;;24.33;4.60;;;5.80;99.90;;;;;;5080295;28;20080;-76
2022/01/05 09:53:24;;;;;;;22.02;3.22;;;5.80;99.90;;;;;;5110636;27;20040;-76
2022/01/05 09:55:53;;;;;;;22.38;3.45;;;5.80;99.90;;;;;;5076348;28;20028;-76
2022/01/05 09:58:21;;;;;;;16.45;2.55;;;5.80;99.90;;;;;;5112423;27;20058;-76
2022/01/05 10:00:48;;;;;;;24.65;3.35;;;6.10;99.90;;;;;;5080868;28;20039;-76
2022/01/05 10:03:14;;;;;;;17.83;3.05;;;6.00;99.90;;;;;;5080973;28;20522;-76
2022/01/05 10:05:43;;;;;;;19.58;2.38;;;6.00;99.90;;;;;;5076650;28;20040;-76
2022/01/05 10:08:09;;;;;;;20.05;2.60;;;6.00;99.90;;;;;;5079107;28;20040;-76
2022/01/05 10:10:35;;;;;;;19.00;2.65;;;6.00;99.90;;;;;;5112572;27;20037;-76
2022/01/05 10:13:01;;;;;;;15.88;2.72;;;6.10;99.90;;;;;;5076969;28;20047;-76
2022/01/05 10:15:27;;;;;;;19.08;3.53;;;6.10;99.90;;;;;;5079752;28;20495;-76
2022/01/05 10:18:17;;;;;;;25.27;3.47;;;6.20;99.90;;;;;;5082375;28;20040;-76
2022/01/05 10:21:05;;;;;;;20.00;2.40;;;6.20;99.90;;;;;;5081239;28;20047;-75
2022/01/05 10:23:52;;;;;;;21.27;3.35;;;6.30;99.90;;;;;;5114243;27;20127;-76
2022/01/05 10:26:27;;;;;;;23.77;3.25;;;6.30;99.90;;;;;;5077572;28;20037;-76
2022/01/05 10:28:58;;;;;;;22.27;3.15;;;6.40;99.90;;;;;;5095982;27;20090;-76
2022/01/05 10:31:28;;;;;;;24.10;3.53;;;6.50;99.90;;;;;;5079268;28;20053;-76
2022/01/05 10:33:55;;;;;;;17.55;2.78;;;6.60;99.90;;;;;;5079589;28;20044;-77
2022/01/05 10:36:21;;;;;;;18.02;3.47;;;6.80;99.90;;;;;;5081068;28;20032;-76
2022/01/05 10:38:57;;;;;;;21.77;3.08;;;6.90;99.90;;;;;;5079723;28;20487;-77
2022/01/05 10:41:27;;;;;;;11.57;2.58;;;7.00;99.90;;;;;;5078908;28;20044;-76
2022/01/05 10:44:11;;;;;;;20.10;4.15;;;7.10;99.90;;;;;;5112166;27;20071;-76
2022/01/05 10:46:41;;;;;;;28.02;3.17;;;7.20;99.90;;;;;;5114684;27;20060;-76
2022/01/05 10:49:07;;;;;;;20.60;3.15;;;7.20;99.90;;;;;;5077441;28;20035;-76
2022/01/05 10:51:34;;;;;;;19.25;2.40;;;7.20;99.90;;;;;;5114370;27;20498;-77
2022/01/05 10:54:10;;;;;;;20.13;2.42;;;7.20;99.90;;;;;;5083080;28;20071;-77
2022/01/05 10:56:36;;;;;;;17.40;2.58;;;7.40;99.90;;;;;;5081697;28;20044;-77
2022/01/05 10:59:03;;;;;;;16.85;1.77;;;7.50;99.90;;;;;;5080625;28;20543;-77
2022/01/05 11:01:30;;;;;;;21.20;2.40;;;7.60;99.90;;;;;;5082335;28;20044;-76
2022/01/05 11:03:56;;;;;;;15.35;2.50;;;7.70;99.90;;;;;;5082297;28;20052;-77
2022/01/05 11:06:22;;;;;;;19.02;2.95;;;7.80;99.90;;;;;;5078457;28;20036;-76
2022/01/05 11:08:59;;;;;;;19.33;3.67;;;7.80;99.90;;;;;;5078341;28;20048;-77
2022/01/05 11:11:44;;;;;;;19.38;3.72;;;7.90;99.90;;;;;;5063734;28;20043;-77
2022/01/05 11:14:10;;;;;;;19.80;3.08;;;7.90;99.90;;;;;;5077961;28;20055;-76
2022/01/05 11:16:38;;;;;;;17.13;2.47;;;8.00;99.90;;;;;;5077652;28;20094;-76
2022/01/05 11:19:24;;;;;;;15.85;2.20;;;8.20;99.90;;;;;;5077158;28;20076;-77
2022/01/05 11:21:58;;;;;;;;;;;8.30;99.90;;;;;;5078087;28;20441;-77
2022/01/05 11:24:26;;;;;;;15.13;3.10;;;8.40;99.90;;;;;;5081167;28;19962;-77
2022/01/05 11:26:52;;;;;;;10.52;1.58;;;8.40;99.90;;;;;;5077284;28;20038;-77
2022/01/05 11:29:19;;;;;;;10.15;1.40;;;8.60;99.90;;;;;;5077700;28;20248;-77
2022/01/05 11:31:45;;;;;;;11.30;1.85;;;8.90;99.90;;;;;;5076577;28;20051;-77
2022/01/05 11:34:11;;;;;;;8.60;1.40;;;8.90;99.90;;;;;;5076526;28;20051;-77
2022/01/05 11:36:42;;;;;;;13.65;1.70;;;9.10;99.90;;;;;;5078648;28;20544;-77
2022/01/05 11:39:08;;;;;;;7.97;1.30;;;9.20;99.90;;;;;;5109453;27;20127;-77
2022/01/05 11:41:43;;;;;;;11.23;1.73;;;9.30;99.90;;;;;;5061085;28;20047;-77
2022/01/05 11:44:09;;;;;;;9.07;1.17;;;9.20;99.90;;;;;;5080227;28;20044;-77
2022/01/05 11:46:35;;;;;;;11.43;2.00;;;9.30;99.90;;;;;;5078901;28;20044;-77
2022/01/05 11:49:04;;;;;;;11.05;2.03;;;9.30;99.90;;;;;;5074625;28;20059;-78
2022/01/05 11:51:31;;;;;;;11.18;1.88;;;9.30;99.90;;;;;;5079875;28;20093;-78
2022/01/05 11:54:25;;;;;;;20.90;3.17;;;9.10;99.90;;;;;;5076938;28;20058;-77
2022/01/05 11:56:57;;;;;;;9.95;1.45;;;9.00;99.90;;;;;;5079779;28;20520;-77
2022/01/05 11:59:35;;;;;;;10.95;1.80;;;8.70;99.90;;;;;;5112360;27;20509;-77
2022/01/05 12:02:10;;;;;;;5.00;0.88;;;8.50;99.90;;;;;;5078839;28;20055;-77
2022/01/05 12:04:56;;;;;;;6.40;0.95;;;8.20;99.90;;;;;;5078630;28;20089;-77
2022/01/05 12:07:40;;;;;;;7.82;1.13;;;8.10;99.90;;;;;;5112477;27;20076;-77
2022/01/05 12:10:13;;;;;;;4.78;0.52;;;8.10;99.90;;;;;;5079443;28;20044;-77
2022/01/05 12:13:05;;;;;;;9.90;1.55;;;8.10;99.90;;;;;;5082840;28;20741;-76
2022/01/05 12:15:46;;;;;;;6.07;1.10;;;8.20;99.90;;;;;;5096875;28;20063;-77
2022/01/05 12:18:20;;;;;;;10.10;1.60;;;8.30;99.90;;;;;;5083086;28;20036;-78
2022/01/05 12:20:46;;;;;;;8.18;1.50;;;8.30;99.90;;;;;;5080142;28;20041;-77
2022/01/05 12:23:27;;;;;;;10.18;1.75;;;8.20;99.90;;;;;;5084274;28;20627;-76
2022/01/05 12:26:07;;;;;;;15.65;2.10;;;8.20;99.90;;;;;;5084315;28;20032;-78
2022/01/05 12:28:35;;;;;;;12.05;2.00;;;8.20;99.90;;;;;;5076090;28;20059;-78
2022/01/05 12:31:02;;;;;;;14.15;1.88;;;8.20;99.90;;;;;;5079120;28;20043;-77
2022/01/05 12:33:51;;;;;;;13.18;1.75;;;8.10;99.90;;;;;;5118159;27;20564;-78
2022/01/05 12:36:37;;;;;;;13.07;2.45;;;8.10;99.90;;;;;;5079671;28;20041;-77
2022/01/05 12:39:10;;;;;;;11.20;1.63;;;8.20;99.90;;;;;;5081341;28;20035;-76
2022/01/05 12:41:45;;;;;;;11.80;2.33;;;8.20;99.90;;;;;;5078083;28;20036;-76
2022/01/05 12:44:19;;;;;;;19.38;3.30;;;8.20;99.90;;;;;;5115339;27;20051;-77
2022/01/05 12:46:50;;;;;;;15.93;2.70;;;8.20;99.90;;;;;;5080640;28;20045;-77
2022/01/05 12:49:17;;;;;;;17.35;2.45;;;8.20;99.90;;;;;;5081678;28;20067;-77
2022/01/05 12:51:48;;;;;;;18.73;2.67;;;8.10;99.90;;;;;;5076932;28;20085;-77
2022/01/05 12:54:22;;;;;;;11.45;2.17;;;8.00;99.90;;;;;;5079273;28;20032;-77
2022/01/05 12:57:00;;;;;;;5.97;0.95;;;8.00;99.90;;;;;;5081801;28;20036;-77